Aleknagik, Alaska
Current Conditions -  °F | °C
As of 5:16 AM on Monday 22 Dec 2014 (Local Time) from PADL Reporting Station
Overcast Overcast  
Wind Chill: -17°   Ceiling: 3500
Heat Index: -11°   Visibility: 10mi
Dew Point: -12°   Wind: 7mph
Humidity: 92%   Direction: 350°N
Pressure: 29.71"   Gusts: NA
Location:  59.27°N, 158.62°W
Report Text: PADL 221416Z 35006KT 10SM OVC035 M11/M12 A2971 RMK AO1
Loading
Personal Weather Stations






























Interactive Weather Map New forecast layout! Learn more

10-Day Weather Forecast

Advertisements
Track Severe Weather on mobile